SAS143 ESSA-ESGG
Flight info
| Callsign | SAS143 |
|---|---|
| Flight time | 0h 46m |
| Altitude | 30000 |
| Route | ARS N623 BEDLA N866 LAPSI DCT MOXAM |
| Aircraft | A320/M-SDE3FGHIRWY/LB1 |
Departure
| Time | 2026-05-05 16:11 |
|---|---|
| Airport | Stockholm-Arlanda Airport (ESSA) |
Arrival
| Time | 2026-05-05 16:58 |
|---|---|
| Airport | Göteborg Landvetter Airport (ESGG) |
| Time | Latitude | Longitude | Altitude | Speed | Heading |
|---|---|---|---|---|---|
| 2026-05-05 15:17 | 59.65388 | 17.93046 | 114 ft | 0 kts | 188° |
| 2026-05-05 15:53 | 59.65391 | 17.93047 | 114 ft | 2 kts | 188° |
| 2026-05-05 15:53 | 59.65406 | 17.93051 | 114 ft | 2 kts | 188° |
| 2026-05-05 15:54 | 59.65420 | 17.93055 | 114 ft | 1 kts | 198° |
| 2026-05-05 15:54 | 59.65431 | 17.93073 | 114 ft | 2 kts | 245° |
| 2026-05-05 15:54 | 59.65433 | 17.93088 | 114 ft | 1 kts | 261° |
| 2026-05-05 15:54 | 59.65434 | 17.93094 | 114 ft | 0 kts | 258° |
| 2026-05-05 15:56 | 59.65434 | 17.93095 | 114 ft | 0 kts | 258° |
| 2026-05-05 15:57 | 59.65434 | 17.93094 | 114 ft | 0 kts | 258° |
| 2026-05-05 16:02 | 59.65433 | 17.93085 | 114 ft | 0 kts | 258° |
| 2026-05-05 16:03 | 59.65428 | 17.93043 | 114 ft | 6 kts | 257° |
| 2026-05-05 16:03 | 59.65440 | 17.92955 | 113 ft | 8 kts | 321° |
| 2026-05-05 16:03 | 59.65461 | 17.92831 | 111 ft | 12 kts | 254° |
| 2026-05-05 16:03 | 59.65417 | 17.92660 | 108 ft | 15 kts | 235° |
| 2026-05-05 16:04 | 59.65340 | 17.92508 | 105 ft | 16 kts | 216° |
| 2026-05-05 16:04 | 59.65247 | 17.92408 | 106 ft | 14 kts | 200° |
| 2026-05-05 16:04 | 59.65142 | 17.92359 | 105 ft | 15 kts | 190° |
| 2026-05-05 16:04 | 59.65036 | 17.92323 | 107 ft | 15 kts | 189° |
| 2026-05-05 16:05 | 59.64933 | 17.92285 | 108 ft | 15 kts | 191° |
| 2026-05-05 16:05 | 59.64831 | 17.92245 | 109 ft | 14 kts | 189° |
| 2026-05-05 16:05 | 59.64733 | 17.92212 | 111 ft | 14 kts | 190° |
| 2026-05-05 16:05 | 59.64636 | 17.92177 | 112 ft | 14 kts | 190° |
| 2026-05-05 16:06 | 59.64542 | 17.92142 | 114 ft | 13 kts | 191° |
| 2026-05-05 16:06 | 59.64443 | 17.92106 | 113 ft | 15 kts | 190° |
| 2026-05-05 16:06 | 59.64350 | 17.92055 | 114 ft | 11 kts | 223° |
| 2026-05-05 16:06 | 59.64315 | 17.91915 | 115 ft | 11 kts | 223° |
| 2026-05-05 16:07 | 59.64235 | 17.91865 | 116 ft | 12 kts | 191° |
| 2026-05-05 16:07 | 59.64149 | 17.91834 | 117 ft | 12 kts | 190° |
| 2026-05-05 16:07 | 59.64055 | 17.91801 | 115 ft | 14 kts | 191° |
| 2026-05-05 16:07 | 59.63948 | 17.91762 | 114 ft | 15 kts | 191° |
| 2026-05-05 16:08 | 59.63851 | 17.91711 | 112 ft | 11 kts | 207° |
| 2026-05-05 16:08 | 59.63803 | 17.91638 | 110 ft | 5 kts | 220° |
| 2026-05-05 16:08 | 59.63770 | 17.91584 | 110 ft | 7 kts | 220° |
| 2026-05-05 16:08 | 59.63741 | 17.91531 | 110 ft | 5 kts | 229° |
| 2026-05-05 16:09 | 59.63726 | 17.91462 | 112 ft | 6 kts | 266° |
| 2026-05-05 16:09 | 59.63732 | 17.91364 | 112 ft | 7 kts | 296° |
| 2026-05-05 16:09 | 59.63768 | 17.91337 | 113 ft | 5 kts | 10° |
| 2026-05-05 16:09 | 59.63776 | 17.91340 | 113 ft | 0 kts | 11° |
| 2026-05-05 16:10 | 59.63933 | 17.91394 | 113 ft | 58 kts | 9° |
| 2026-05-05 16:11 | 59.64558 | 17.91621 | 115 ft | 121 kts | 12° |
| 2026-05-05 16:11 | 59.67769 | 17.92960 | 1291 ft | 165 kts | 6° |
| 2026-05-05 16:12 | 59.68863 | 17.92666 | 1977 ft | 164 kts | 331° |
| 2026-05-05 16:12 | 59.69545 | 17.88399 | 2943 ft | 195 kts | 261° |
| 2026-05-05 16:13 | 59.68922 | 17.79793 | 5055 ft | 219 kts | 266° |
| 2026-05-05 16:13 | 59.68782 | 17.76821 | 5969 ft | 218 kts | 262° |
| 2026-05-05 16:13 | 59.68377 | 17.73953 | 6701 ft | 226 kts | 249° |
| 2026-05-05 16:14 | 59.67170 | 17.67973 | 7404 ft | 248 kts | 254° |
| 2026-05-05 16:14 | 59.65305 | 17.61956 | 8339 ft | 275 kts | 225° |
| 2026-05-05 16:15 | 59.62499 | 17.57029 | 10220 ft | 271 kts | 231° |
| 2026-05-05 16:15 | 59.61189 | 17.49922 | 11071 ft | 298 kts | 269° |
| 2026-05-05 16:16 | 59.61072 | 17.41473 | 12212 ft | 315 kts | 267° |
| 2026-05-05 16:16 | 59.60838 | 17.33044 | 13965 ft | 309 kts | 266° |
| 2026-05-05 16:17 | 59.60580 | 17.24678 | 15494 ft | 306 kts | 264° |
| 2026-05-05 16:17 | 59.60414 | 17.20622 | 16428 ft | 298 kts | 264° |
| 2026-05-05 16:18 | 59.60193 | 17.12837 | 18353 ft | 276 kts | 264° |
| 2026-05-05 16:18 | 59.60082 | 17.09149 | 19375 ft | 264 kts | 264° |
| 2026-05-05 16:18 | 59.59867 | 17.02176 | 20649 ft | 251 kts | 264° |
| 2026-05-05 16:19 | 59.59757 | 16.98728 | 20702 ft | 255 kts | 264° |
| 2026-05-05 16:19 | 59.59642 | 16.95241 | 20805 ft | 259 kts | 264° |
| 2026-05-05 16:19 | 59.59405 | 16.88114 | 21178 ft | 262 kts | 264° |
| 2026-05-05 16:20 | 59.59164 | 16.80951 | 21629 ft | 264 kts | 264° |
| 2026-05-05 16:20 | 59.58931 | 16.73912 | 22593 ft | 248 kts | 263° |
| 2026-05-05 16:21 | 59.58762 | 16.67479 | 23653 ft | 232 kts | 266° |
| 2026-05-05 16:22 | 59.59410 | 16.57564 | 24301 ft | 261 kts | 275° |
| 2026-05-05 16:22 | 59.60123 | 16.50325 | 24728 ft | 282 kts | 275° |
| 2026-05-05 16:23 | 59.60904 | 16.42470 | 25124 ft | 301 kts | 276° |
| 2026-05-05 16:23 | 59.61314 | 16.38346 | 25301 ft | 311 kts | 276° |
| 2026-05-05 16:23 | 59.62161 | 16.29760 | 25653 ft | 327 kts | 274° |
| 2026-05-05 16:24 | 59.62226 | 16.25332 | 25804 ft | 330 kts | 262° |
| 2026-05-05 16:24 | 59.61720 | 16.20870 | 25959 ft | 337 kts | 251° |
| 2026-05-05 16:24 | 59.59306 | 16.12712 | 26362 ft | 353 kts | 239° |
| 2026-05-05 16:25 | 59.57936 | 16.08739 | 26685 ft | 355 kts | 239° |
| 2026-05-05 16:25 | 59.55119 | 16.00714 | 27309 ft | 360 kts | 239° |
| 2026-05-05 16:25 | 59.53670 | 15.96635 | 27635 ft | 362 kts | 239° |
| 2026-05-05 16:26 | 59.50779 | 15.88555 | 28212 ft | 366 kts | 238° |
| 2026-05-05 16:26 | 59.47840 | 15.80386 | 28850 ft | 367 kts | 238° |
| 2026-05-05 16:27 | 59.46373 | 15.76322 | 29142 ft | 368 kts | 239° |
| 2026-05-05 16:27 | 59.44896 | 15.72235 | 29419 ft | 370 kts | 238° |
| 2026-05-05 16:27 | 59.43404 | 15.68114 | 29691 ft | 371 kts | 238° |
| 2026-05-05 16:27 | 59.41926 | 15.64045 | 29834 ft | 373 kts | 239° |
| 2026-05-05 16:28 | 59.38918 | 15.55775 | 29845 ft | 374 kts | 239° |
| 2026-05-05 16:28 | 59.35890 | 15.47478 | 29848 ft | 374 kts | 239° |
| 2026-05-05 16:29 | 59.32887 | 15.39288 | 29849 ft | 375 kts | 239° |
| 2026-05-05 16:29 | 59.29853 | 15.31035 | 29857 ft | 376 kts | 238° |
| 2026-05-05 16:30 | 59.26796 | 15.22758 | 29862 ft | 376 kts | 238° |
| 2026-05-05 16:30 | 59.23741 | 15.14496 | 29861 ft | 376 kts | 238° |
| 2026-05-05 16:31 | 59.20684 | 15.06277 | 29867 ft | 376 kts | 238° |
| 2026-05-05 16:31 | 59.17637 | 14.98106 | 29856 ft | 377 kts | 238° |
| 2026-05-05 16:32 | 59.14555 | 14.89864 | 29865 ft | 377 kts | 238° |
| 2026-05-05 16:32 | 59.11454 | 14.81603 | 29865 ft | 378 kts | 238° |
| 2026-05-05 16:33 | 59.08381 | 14.73444 | 29858 ft | 378 kts | 238° |
| 2026-05-05 16:33 | 59.05273 | 14.65222 | 29857 ft | 378 kts | 238° |
| 2026-05-05 16:34 | 59.02146 | 14.56983 | 29863 ft | 379 kts | 238° |
| 2026-05-05 16:34 | 58.99044 | 14.48832 | 29861 ft | 380 kts | 238° |
| 2026-05-05 16:35 | 58.95895 | 14.40587 | 29862 ft | 380 kts | 238° |
| 2026-05-05 16:35 | 58.92757 | 14.32413 | 29853 ft | 381 kts | 237° |
| 2026-05-05 16:36 | 58.91178 | 14.28308 | 29592 ft | 381 kts | 237° |
| 2026-05-05 16:36 | 58.89628 | 14.24279 | 29334 ft | 378 kts | 238° |
| 2026-05-05 16:36 | 58.88069 | 14.20234 | 29071 ft | 376 kts | 238° |
| 2026-05-05 16:36 | 58.86501 | 14.16171 | 28714 ft | 375 kts | 238° |
| 2026-05-05 16:37 | 58.84946 | 14.12150 | 28159 ft | 375 kts | 237° |
| 2026-05-05 16:37 | 58.83396 | 14.08147 | 27496 ft | 374 kts | 238° |
| 2026-05-05 16:37 | 58.81848 | 14.04168 | 27030 ft | 370 kts | 237° |
| 2026-05-05 16:37 | 58.80325 | 14.00249 | 26549 ft | 367 kts | 238° |
| 2026-05-05 16:38 | 58.78805 | 13.96347 | 26049 ft | 364 kts | 238° |
| 2026-05-05 16:38 | 58.77290 | 13.92465 | 25544 ft | 361 kts | 238° |
| 2026-05-05 16:38 | 58.75801 | 13.88654 | 25046 ft | 358 kts | 238° |
| 2026-05-05 16:38 | 58.74306 | 13.84839 | 24539 ft | 355 kts | 238° |
| 2026-05-05 16:39 | 58.72834 | 13.81084 | 24035 ft | 352 kts | 238° |
| 2026-05-05 16:39 | 58.71384 | 13.77389 | 23536 ft | 349 kts | 238° |
| 2026-05-05 16:39 | 58.69945 | 13.73729 | 23045 ft | 346 kts | 238° |
| 2026-05-05 16:39 | 58.68491 | 13.70041 | 22537 ft | 343 kts | 238° |
| 2026-05-05 16:40 | 58.67076 | 13.66451 | 22045 ft | 340 kts | 238° |
| 2026-05-05 16:40 | 58.65659 | 13.62863 | 21554 ft | 337 kts | 238° |
| 2026-05-05 16:40 | 58.64247 | 13.59302 | 21053 ft | 334 kts | 238° |
| 2026-05-05 16:40 | 58.62863 | 13.55804 | 20555 ft | 331 kts | 238° |
| 2026-05-05 16:41 | 58.61482 | 13.52328 | 20076 ft | 328 kts | 238° |
| 2026-05-05 16:41 | 58.60119 | 13.48900 | 19570 ft | 325 kts | 238° |
| 2026-05-05 16:41 | 58.58761 | 13.45488 | 19065 ft | 322 kts | 238° |
| 2026-05-05 16:41 | 58.57401 | 13.42079 | 18578 ft | 320 kts | 238° |
| 2026-05-05 16:42 | 58.56064 | 13.38730 | 18095 ft | 317 kts | 238° |
| 2026-05-05 16:42 | 58.54731 | 13.35430 | 17593 ft | 317 kts | 236° |
| 2026-05-05 16:42 | 58.53254 | 13.32328 | 17082 ft | 319 kts | 230° |
| 2026-05-05 16:42 | 58.51583 | 13.29470 | 16553 ft | 323 kts | 225° |
| 2026-05-05 16:43 | 58.49805 | 13.26941 | 16064 ft | 324 kts | 222° |
| 2026-05-05 16:43 | 58.47966 | 13.24432 | 15525 ft | 325 kts | 222° |
| 2026-05-05 16:43 | 58.46135 | 13.21947 | 15003 ft | 325 kts | 221° |
| 2026-05-05 16:43 | 58.44300 | 13.19466 | 14486 ft | 324 kts | 221° |
| 2026-05-05 16:44 | 58.42481 | 13.17016 | 13995 ft | 322 kts | 221° |
| 2026-05-05 16:44 | 58.40675 | 13.14584 | 13511 ft | 321 kts | 221° |
| 2026-05-05 16:44 | 58.38846 | 13.12123 | 12999 ft | 320 kts | 221° |
| 2026-05-05 16:44 | 58.37053 | 13.09716 | 12512 ft | 319 kts | 220° |
| 2026-05-05 16:45 | 58.35224 | 13.07263 | 12014 ft | 319 kts | 220° |
| 2026-05-05 16:45 | 58.33443 | 13.04877 | 11525 ft | 318 kts | 220° |
| 2026-05-05 16:45 | 58.31638 | 13.02463 | 11050 ft | 317 kts | 219° |
| 2026-05-05 16:45 | 58.29856 | 13.00086 | 10633 ft | 315 kts | 219° |
| 2026-05-05 16:46 | 58.28082 | 12.97727 | 10396 ft | 306 kts | 219° |
| 2026-05-05 16:46 | 58.26370 | 12.95456 | 10259 ft | 293 kts | 219° |
| 2026-05-05 16:46 | 58.24737 | 12.93291 | 10118 ft | 281 kts | 219° |
| 2026-05-05 16:46 | 58.23180 | 12.91225 | 9978 ft | 271 kts | 220° |
| 2026-05-05 16:47 | 58.21665 | 12.89217 | 9844 ft | 263 kts | 220° |
| 2026-05-05 16:47 | 58.20168 | 12.87225 | 9476 ft | 264 kts | 219° |
| 2026-05-05 16:47 | 58.18682 | 12.85248 | 9130 ft | 263 kts | 219° |
| 2026-05-05 16:47 | 58.17189 | 12.83269 | 8792 ft | 262 kts | 219° |
| 2026-05-05 16:48 | 58.15705 | 12.81306 | 8460 ft | 260 kts | 219° |
| 2026-05-05 16:48 | 58.14219 | 12.79345 | 8141 ft | 259 kts | 218° |
| 2026-05-05 16:48 | 58.12761 | 12.77421 | 7815 ft | 259 kts | 218° |
| 2026-05-05 16:48 | 58.11292 | 12.75486 | 7479 ft | 258 kts | 218° |
| 2026-05-05 16:49 | 58.09835 | 12.73533 | 7150 ft | 257 kts | 219° |
| 2026-05-05 16:49 | 58.08389 | 12.71541 | 6825 ft | 256 kts | 219° |
| 2026-05-05 16:49 | 58.06961 | 12.69580 | 6505 ft | 256 kts | 219° |
| 2026-05-05 16:49 | 58.05523 | 12.67609 | 6179 ft | 255 kts | 219° |
| 2026-05-05 16:50 | 58.04097 | 12.65663 | 5862 ft | 254 kts | 220° |
| 2026-05-05 16:50 | 58.02746 | 12.63522 | 5544 ft | 261 kts | 221° |
| 2026-05-05 16:50 | 58.01282 | 12.61526 | 5215 ft | 262 kts | 217° |
| 2026-05-05 16:50 | 57.99770 | 12.59596 | 4965 ft | 258 kts | 217° |
| 2026-05-05 16:51 | 57.98343 | 12.57752 | 4945 ft | 244 kts | 216° |
| 2026-05-05 16:51 | 57.96929 | 12.56132 | 4903 ft | 232 kts | 211° |
| 2026-05-05 16:51 | 57.95505 | 12.54778 | 4658 ft | 230 kts | 209° |
| 2026-05-05 16:51 | 57.94089 | 12.53483 | 4436 ft | 226 kts | 208° |
| 2026-05-05 16:52 | 57.92682 | 12.52197 | 4235 ft | 221 kts | 209° |
| 2026-05-05 16:52 | 57.91319 | 12.50949 | 4052 ft | 222 kts | 209° |
| 2026-05-05 16:52 | 57.89919 | 12.49658 | 3863 ft | 222 kts | 209° |
| 2026-05-05 16:52 | 57.88552 | 12.48398 | 3680 ft | 221 kts | 209° |
| 2026-05-05 16:53 | 57.87167 | 12.47123 | 3491 ft | 221 kts | 209° |
| 2026-05-05 16:53 | 57.85804 | 12.45868 | 3329 ft | 220 kts | 210° |
| 2026-05-05 16:53 | 57.84439 | 12.44559 | 3176 ft | 218 kts | 210° |
| 2026-05-05 16:53 | 57.83094 | 12.43275 | 2854 ft | 220 kts | 210° |
| 2026-05-05 16:54 | 57.81732 | 12.42009 | 2556 ft | 218 kts | 209° |
| 2026-05-05 16:54 | 57.80410 | 12.40810 | 2453 ft | 200 kts | 209° |
| 2026-05-05 16:54 | 57.79178 | 12.39696 | 2460 ft | 199 kts | 210° |
| 2026-05-05 16:54 | 57.77960 | 12.38595 | 2543 ft | 185 kts | 210° |
| 2026-05-05 16:55 | 57.76862 | 12.37606 | 2480 ft | 166 kts | 210° |
| 2026-05-05 16:55 | 57.75876 | 12.36715 | 2317 ft | 151 kts | 210° |
| 2026-05-05 16:55 | 57.74939 | 12.35856 | 2174 ft | 150 kts | 211° |
| 2026-05-05 16:55 | 57.74048 | 12.35024 | 1993 ft | 140 kts | 211° |
| 2026-05-05 16:56 | 57.73187 | 12.34261 | 1697 ft | 137 kts | 210° |
| 2026-05-05 16:56 | 57.72333 | 12.33504 | 1510 ft | 136 kts | 210° |
| 2026-05-05 16:56 | 57.71488 | 12.32735 | 1373 ft | 136 kts | 211° |
| 2026-05-05 16:56 | 57.70641 | 12.31957 | 1218 ft | 135 kts | 210° |
| 2026-05-05 16:57 | 57.69794 | 12.31178 | 1013 ft | 135 kts | 209° |
| 2026-05-05 16:57 | 57.68939 | 12.30430 | 822 ft | 135 kts | 209° |
| 2026-05-05 16:57 | 57.68111 | 12.29661 | 656 ft | 134 kts | 211° |
| 2026-05-05 16:57 | 57.67291 | 12.28874 | 510 ft | 128 kts | 206° |
| 2026-05-05 16:58 | 57.66803 | 12.28449 | 511 ft | 43 kts | 205° |
| 2026-05-05 16:58 | 57.66581 | 12.28244 | 511 ft | 30 kts | 206° |
| 2026-05-05 16:58 | 57.66396 | 12.28078 | 511 ft | 29 kts | 205° |
| 2026-05-05 16:58 | 57.66231 | 12.27935 | 510 ft | 15 kts | 200° |
| 2026-05-05 16:59 | 57.66135 | 12.27987 | 509 ft | 14 kts | 124° |
| 2026-05-05 16:59 | 57.66108 | 12.28126 | 509 ft | 6 kts | 84° |
| 2026-05-05 16:59 | 57.66138 | 12.28194 | 510 ft | 7 kts | 29° |
| 2026-05-05 16:59 | 57.66191 | 12.28242 | 509 ft | 9 kts | 25° |
| 2026-05-05 17:00 | 57.66245 | 12.28290 | 510 ft | 5 kts | 26° |
| 2026-05-05 17:00 | 57.66271 | 12.28315 | 510 ft | 4 kts | 26° |
| 2026-05-05 17:00 | 57.66305 | 12.28346 | 510 ft | 5 kts | 26° |
| 2026-05-05 17:00 | 57.66349 | 12.28387 | 511 ft | 8 kts | 26° |
| 2026-05-05 17:01 | 57.66414 | 12.28444 | 511 ft | 11 kts | 25° |
| 2026-05-05 17:01 | 57.66493 | 12.28516 | 510 ft | 14 kts | 27° |
| 2026-05-05 17:01 | 57.66584 | 12.28599 | 509 ft | 15 kts | 25° |
| 2026-05-05 17:01 | 57.66686 | 12.28692 | 506 ft | 16 kts | 25° |
| 2026-05-05 17:02 | 57.66773 | 12.28772 | 506 ft | 9 kts | 26° |
| 2026-05-05 17:02 | 57.66827 | 12.28854 | 506 ft | 10 kts | 75° |
| 2026-05-05 17:02 | 57.66802 | 12.28990 | 507 ft | 11 kts | 117° |
| 2026-05-05 17:02 | 57.66773 | 12.29101 | 508 ft | 8 kts | 115° |
| 2026-05-05 17:03 | 57.66750 | 12.29192 | 510 ft | 7 kts | 116° |
| 2026-05-05 17:03 | 57.66736 | 12.29245 | 511 ft | 3 kts | 115° |
| 2026-05-05 17:03 | 57.66728 | 12.29275 | 512 ft | 1 kts | 114° |
| 2026-05-05 17:03 | 57.66727 | 12.29278 | 512 ft | 0 kts | 114° |